createdAt,value
2022-08-04T00:01:47.787Z,39.17
2022-08-04T00:07:06.200Z,38.91
2022-08-04T00:12:12.724Z,38.80
2022-08-04T00:17:15.202Z,38.83
2022-08-04T00:22:20.845Z,38.90
2022-08-04T00:27:23.148Z,38.64
2022-08-04T00:32:34.098Z,38.60
2022-08-04T00:37:38.794Z,38.85
2022-08-04T00:42:59.311Z,38.73
2022-08-04T00:48:41.662Z,38.71
2022-08-04T00:54:01.934Z,38.53
2022-08-04T00:59:21.973Z,38.59
2022-08-04T01:04:54.651Z,38.63
2022-08-04T01:10:37.775Z,38.71
2022-08-04T01:15:57.135Z,38.89
2022-08-04T01:21:20.563Z,38.55
2022-08-04T01:27:03.979Z,38.66
2022-08-04T01:32:28.153Z,38.55
2022-08-04T01:37:48.030Z,38.84
2022-08-04T01:42:53.462Z,38.79
2022-08-04T01:47:56.518Z,38.53
2022-08-04T01:52:59.038Z,38.62
2022-08-04T01:58:01.339Z,38.84
2022-08-04T02:03:03.220Z,38.75
2022-08-04T02:08:08.043Z,38.79
2022-08-04T02:13:10.216Z,38.57
2022-08-04T02:18:31.441Z,38.64
2022-08-04T02:23:38.349Z,38.78
2022-08-04T02:29:13.920Z,38.85
2022-08-04T02:34:49.799Z,38.70
2022-08-04T02:39:54.639Z,38.79
2022-08-04T02:44:59.496Z,38.94
2022-08-04T02:50:02.859Z,38.82
2022-08-04T02:55:07.203Z,39.03
2022-08-04T03:00:12.590Z,38.64
2022-08-04T03:05:20.048Z,38.74
2022-08-04T03:10:43.545Z,38.70
2022-08-04T03:16:16.088Z,38.74
2022-08-04T03:21:56.844Z,38.89
2022-08-04T03:27:04.521Z,38.83
2022-08-04T03:32:18.384Z,38.87
2022-08-04T03:37:59.013Z,38.82
2022-08-04T03:43:57.113Z,38.47
2022-08-04T03:48:59.434Z,38.65
2022-08-04T03:54:30.874Z,38.64
2022-08-04T03:59:51.357Z,38.83
2022-08-04T04:05:08.244Z,38.76
2022-08-04T04:10:29.080Z,38.54
2022-08-04T04:15:51.311Z,38.90
2022-08-04T04:20:53.052Z,38.72
2022-08-04T04:26:13.311Z,39.06
2022-08-04T04:31:30.109Z,38.81
2022-08-04T04:36:53.078Z,38.97
2022-08-04T04:42:16.693Z,38.75
2022-08-04T04:48:08.610Z,39.15
2022-08-04T04:53:42.918Z,38.96
2022-08-04T04:58:44.878Z,39.12
2022-08-04T05:04:24.121Z,39.11
2022-08-04T05:09:39.560Z,39.08
2022-08-04T05:14:46.684Z,39.06
2022-08-04T05:20:01.959Z,38.96
2022-08-04T05:25:07.567Z,38.90
2022-08-04T05:30:11.110Z,39.06
2022-08-04T05:35:52.066Z,38.89
2022-08-04T05:40:44.063Z,38.90
2022-08-04T05:45:48.890Z,38.85
2022-08-04T05:50:54.032Z,39.03
2022-08-04T05:56:00.538Z,38.78
2022-08-04T06:01:03.320Z,38.76
2022-08-04T06:06:06.860Z,38.97
2022-08-04T06:11:12.230Z,38.68
2022-08-04T06:16:28.574Z,39.03
2022-08-04T06:21:33.071Z,39.01
2022-08-04T06:26:37.003Z,38.83
2022-08-04T06:32:29.979Z,38.93
2022-08-04T06:37:40.740Z,38.83
2022-08-04T06:42:44.502Z,38.98
2022-08-04T06:47:47.933Z,38.97
2022-08-04T06:52:49.914Z,39.01
2022-08-04T06:57:53.071Z,38.84
2022-08-04T07:02:55.297Z,38.68
2022-08-04T07:07:58.810Z,38.83
2022-08-04T07:13:01.865Z,39.45
2022-08-04T07:18:05.031Z,40.26
2022-08-04T07:23:08.122Z,40.54
2022-08-04T07:28:09.907Z,40.93
2022-08-04T07:33:12.678Z,40.81
2022-08-04T07:38:14.546Z,40.76
2022-08-04T07:43:18.466Z,40.76
2022-08-04T07:48:23.130Z,40.09
2022-08-04T07:53:54.714Z,40.18
2022-08-04T07:58:48.252Z,40.42
2022-08-04T08:03:56.620Z,40.70
2022-08-04T08:09:02.135Z,41.17
2022-08-04T08:14:16.336Z,41.30
2022-08-04T08:19:18.171Z,40.56
2022-08-04T08:24:20.291Z,41.30
2022-08-04T08:29:22.578Z,41.39
2022-08-04T08:34:28.039Z,41.64
2022-08-04T08:39:55.335Z,41.45
2022-08-04T08:45:18.428Z,41.78
2022-08-04T08:50:26.108Z,41.83
2022-08-04T08:55:43.336Z,41.36
2022-08-04T09:00:59.022Z,41.60
2022-08-04T09:06:41.248Z,41.65
2022-08-04T09:11:56.297Z,40.89
2022-08-04T09:17:04.061Z,40.71
2022-08-04T09:22:37.294Z,41.20
2022-08-04T09:27:52.484Z,40.86
2022-08-04T09:33:44.684Z,41.32
2022-08-04T09:39:29.701Z,41.43
2022-08-04T09:45:01.464Z,41.44
2022-08-04T09:50:17.902Z,41.63
2022-08-04T09:55:53.747Z,41.88
2022-08-04T10:01:24.487Z,42.05
2022-08-04T10:06:44.698Z,41.97
2022-08-04T10:12:13.269Z,41.61
2022-08-04T10:17:33.646Z,41.33
2022-08-04T10:23:09.560Z,41.47
2022-08-04T10:28:13.846Z,41.64
2022-08-04T10:33:24.740Z,41.23
2022-08-04T10:38:37.625Z,41.39
2022-08-04T10:43:58.690Z,41.76
2022-08-04T10:49:05.587Z,39.58
2022-08-04T10:54:11.618Z,39.47
2022-08-04T10:59:19.478Z,39.43
2022-08-04T11:04:29.642Z,39.39
2022-08-04T11:09:33.810Z,39.45
2022-08-04T11:14:59.811Z,39.72
2022-08-04T11:20:40.164Z,39.31
2022-08-04T11:26:13.033Z,39.32
2022-08-04T11:31:23.073Z,39.51
2022-08-04T11:36:39.874Z,40.04
2022-08-04T11:41:51.349Z,40.59
2022-08-04T11:46:57.342Z,41.40
2022-08-04T11:52:01.388Z,41.77
2022-08-04T11:57:03.455Z,42.03
2022-08-04T12:02:50.946Z,42.25
2022-08-04T12:08:03.481Z,42.39
2022-08-04T12:13:31.916Z,42.10
2022-08-04T12:18:39.612Z,42.54
2022-08-04T12:23:45.424Z,42.50
2022-08-04T12:29:09.471Z,42.17
2022-08-04T12:34:31.052Z,42.25
2022-08-04T12:39:35.731Z,42.50
2022-08-04T12:44:59.581Z,42.38
2022-08-04T12:50:04.338Z,42.31
2022-08-04T12:55:06.673Z,42.35
2022-08-04T13:00:09.701Z,42.42
2022-08-04T13:05:17.035Z,42.81
2022-08-04T13:10:22.388Z,42.82
2022-08-04T13:20:57.206Z,42.71
2022-08-04T13:26:44.300Z,43.00
2022-08-04T13:30:23.936Z,43.06
2022-08-04T13:31:24.054Z,42.92
2022-08-04T13:36:27.015Z,43.21
2022-08-04T13:41:31.365Z,42.86
2022-08-04T13:46:40.783Z,43.02
2022-08-04T13:51:58.423Z,42.65
2022-08-04T13:57:02.629Z,42.60
2022-08-04T14:02:23.984Z,42.15
2022-08-04T14:07:28.060Z,41.98
2022-08-04T14:12:38.175Z,42.13
2022-08-04T14:17:47.047Z,42.30
2022-08-04T14:22:48.870Z,42.19
2022-08-04T14:27:54.000Z,40.22
2022-08-04T14:34:02.283Z,40.16
2022-08-04T14:39:01.961Z,40.39
2022-08-04T14:44:04.590Z,41.55
2022-08-04T14:49:12.309Z,41.76
2022-08-04T14:54:18.425Z,42.00
2022-08-04T14:59:21.620Z,41.79
2022-08-04T15:04:25.885Z,42.01
2022-08-04T15:09:28.546Z,42.21
2022-08-04T15:14:37.811Z,42.16
2022-08-04T15:19:40.493Z,42.02
2022-08-04T15:24:57.729Z,42.21
2022-08-04T15:30:06.041Z,42.47
2022-08-04T15:35:13.689Z,42.38
2022-08-04T15:40:32.772Z,42.47
2022-08-04T15:46:04.060Z,42.46
2022-08-04T15:51:30.501Z,42.39
2022-08-04T15:56:37.222Z,42.13
2022-08-04T16:01:39.224Z,42.28
2022-08-04T16:06:42.641Z,42.24
2022-08-04T16:11:44.516Z,42.25
2022-08-04T16:16:51.398Z,42.44
2022-08-04T16:21:56.285Z,42.90
2022-08-04T16:27:11.796Z,42.79
2022-08-04T16:32:13.691Z,42.67
2022-08-04T16:37:16.965Z,42.80
2022-08-04T16:42:28.336Z,42.71
2022-08-04T16:47:48.366Z,42.80
2022-08-04T16:52:55.680Z,42.91
2022-08-04T16:58:01.618Z,42.90
2022-08-04T17:03:05.851Z,42.37
2022-08-04T17:14:02.090Z,42.06
2022-08-04T17:18:59.330Z,42.04
2022-08-04T17:24:16.401Z,42.02
2022-08-04T17:29:19.986Z,42.09
2022-08-04T17:34:26.397Z,41.77
2022-08-04T17:39:31.214Z,41.74
2022-08-04T17:44:40.695Z,41.56
2022-08-04T17:49:52.659Z,41.98
2022-08-04T17:55:04.153Z,42.64
2022-08-04T18:00:06.644Z,42.37
2022-08-04T18:05:11.927Z,42.20
2022-08-04T18:10:30.601Z,42.12
2022-08-04T18:15:44.132Z,42.69
2022-08-04T18:20:50.006Z,42.74
2022-08-04T18:25:52.396Z,42.93
2022-08-04T18:30:55.288Z,42.71
2022-08-04T18:36:32.923Z,42.82
2022-08-04T18:41:20.444Z,42.83
2022-08-04T18:46:23.122Z,43.00
2022-08-04T18:51:31.143Z,42.96
2022-08-04T18:56:34.043Z,43.06
2022-08-04T19:02:12.554Z,43.64
2022-08-04T19:07:24.489Z,43.11
2022-08-04T19:12:27.103Z,43.41
2022-08-04T19:17:54.013Z,43.49
2022-08-04T19:24:11.073Z,43.57
2022-08-04T19:28:17.258Z,43.32
2022-08-04T19:33:24.992Z,39.95
2022-08-04T19:38:27.428Z,40.01
2022-08-04T19:43:32.694Z,41.60
2022-08-04T19:48:35.288Z,41.92
2022-08-04T19:53:43.202Z,41.90
2022-08-04T19:58:48.088Z,41.59
2022-08-04T20:04:09.836Z,41.68
2022-08-04T20:09:26.208Z,41.52
2022-08-04T20:14:32.497Z,41.39
2022-08-04T20:19:35.457Z,41.55
2022-08-04T20:24:45.912Z,41.28
2022-08-04T20:29:55.415Z,41.08
2022-08-04T20:34:58.926Z,40.33
2022-08-04T20:40:02.492Z,40.07
2022-08-04T20:45:07.686Z,39.97
2022-08-04T20:50:18.500Z,39.62
2022-08-04T20:55:31.989Z,40.03
2022-08-04T21:00:53.144Z,40.54
2022-08-04T21:05:56.868Z,41.07
2022-08-04T21:10:58.745Z,41.20
2022-08-04T21:16:02.332Z,41.34
2022-08-04T21:21:06.361Z,41.87
2022-08-04T21:26:10.944Z,42.43
2022-08-04T21:31:21.963Z,42.49
2022-08-04T21:36:27.442Z,42.13
2022-08-04T21:41:29.519Z,42.22
2022-08-04T21:46:35.735Z,41.86
2022-08-04T21:51:59.645Z,42.19
2022-08-04T21:57:03.289Z,41.74
2022-08-04T22:02:05.665Z,41.90
2022-08-04T22:07:09.748Z,41.82
2022-08-04T22:12:12.518Z,41.59
2022-08-04T22:17:24.279Z,41.44
2022-08-04T22:22:29.600Z,41.61
2022-08-04T22:27:55.280Z,41.51
2022-08-04T22:32:57.246Z,41.59
2022-08-04T22:38:06.302Z,41.63
2022-08-04T22:43:33.610Z,41.62
2022-08-04T22:48:35.873Z,41.49
2022-08-04T22:53:37.631Z,41.74
2022-08-04T22:58:51.282Z,41.89
2022-08-04T23:03:55.884Z,41.68
2022-08-04T23:08:59.330Z,41.67
2022-08-04T23:14:01.341Z,41.63
2022-08-04T23:19:09.508Z,41.68
2022-08-04T23:24:12.201Z,41.71
2022-08-04T23:29:15.301Z,41.90
2022-08-04T23:34:18.813Z,41.53
2022-08-04T23:39:20.975Z,41.74
2022-08-04T23:44:26.844Z,41.42
2022-08-04T23:49:43.440Z,41.67
2022-08-04T23:54:47.356Z,41.63
2022-08-04T23:59:54.378Z,41.49
